sensor_id;sensor_type;location;lat;lon;timestamp;temperature;humidity
6752;DHT22;3413;47.680;9.166;2023-05-19T00:04:15;15.80;86.40
6752;DHT22;3413;47.680;9.166;2023-05-19T00:09:17;15.80;86.40
6752;DHT22;3413;47.680;9.166;2023-05-19T00:14:20;15.80;86.40
6752;DHT22;3413;47.680;9.166;2023-05-19T00:19:22;15.80;86.30
6752;DHT22;3413;47.680;9.166;2023-05-19T00:24:27;15.70;86.50
6752;DHT22;3413;47.680;9.166;2023-05-19T00:29:29;15.60;86.30
6752;DHT22;3413;47.680;9.166;2023-05-19T00:34:32;15.60;86.50
6752;DHT22;3413;47.680;9.166;2023-05-19T00:39:34;15.60;86.20
6752;DHT22;3413;47.680;9.166;2023-05-19T00:44:39;15.50;86.30
6752;DHT22;3413;47.680;9.166;2023-05-19T00:49:42;15.50;86.50
6752;DHT22;3413;47.680;9.166;2023-05-19T00:54:44;15.50;86.40
6752;DHT22;3413;47.680;9.166;2023-05-19T00:59:50;15.50;86.50
6752;DHT22;3413;47.680;9.166;2023-05-19T01:04:52;15.40;86.40
6752;DHT22;3413;47.680;9.166;2023-05-19T01:09:56;15.40;86.50
6752;DHT22;3413;47.680;9.166;2023-05-19T01:14:58;15.30;86.50
6752;DHT22;3413;47.680;9.166;2023-05-19T01:35:36;15.30;86.50
6752;DHT22;3413;47.680;9.166;2023-05-19T01:40:39;15.20;86.60
6752;DHT22;3413;47.680;9.166;2023-05-19T01:45:43;15.20;86.60
6752;DHT22;3413;47.680;9.166;2023-05-19T01:50:45;15.10;86.70
6752;DHT22;3413;47.680;9.166;2023-05-19T01:55:52;15.10;86.60
6752;DHT22;3413;47.680;9.166;2023-05-19T02:06:41;15.20;86.80
6752;DHT22;3413;47.680;9.166;2023-05-19T02:16:52;15.10;86.70
6752;DHT22;3413;47.680;9.166;2023-05-19T02:21:54;15.10;86.70
6752;DHT22;3413;47.680;9.166;2023-05-19T02:26:57;15.10;86.70
6752;DHT22;3413;47.680;9.166;2023-05-19T02:32:00;15.20;86.80
6752;DHT22;3413;47.680;9.166;2023-05-19T02:37:02;15.20;86.90
6752;DHT22;3413;47.680;9.166;2023-05-19T02:42:05;15.10;86.90
6752;DHT22;3413;47.680;9.166;2023-05-19T02:47:07;15.10;86.90
6752;DHT22;3413;47.680;9.166;2023-05-19T02:52:09;14.90;86.80
6752;DHT22;3413;47.680;9.166;2023-05-19T02:57:13;14.90;87.00
6752;DHT22;3413;47.680;9.166;2023-05-19T03:02:15;14.90;86.80
6752;DHT22;3413;47.680;9.166;2023-05-19T03:07:17;14.90;86.80
6752;DHT22;3413;47.680;9.166;2023-05-19T03:12:25;14.80;86.90
6752;DHT22;3413;47.680;9.166;2023-05-19T03:17:27;14.80;86.90
6752;DHT22;3413;47.680;9.166;2023-05-19T03:22:34;14.80;87.00
6752;DHT22;3413;47.680;9.166;2023-05-19T03:27:36;14.80;86.90
6752;DHT22;3413;47.680;9.166;2023-05-19T03:32:40;14.70;87.00
6752;DHT22;3413;47.680;9.166;2023-05-19T03:37:42;14.80;86.90
6752;DHT22;3413;47.680;9.166;2023-05-19T03:42:45;14.70;86.80
6752;DHT22;3413;47.680;9.166;2023-05-19T03:47:47;14.70;86.80
6752;DHT22;3413;47.680;9.166;2023-05-19T03:53:12;14.70;86.90
6752;DHT22;3413;47.680;9.166;2023-05-19T03:58:15;14.70;87.00
6752;DHT22;3413;47.680;9.166;2023-05-19T04:03:17;14.60;86.90
6752;DHT22;3413;47.680;9.166;2023-05-19T04:08:19;14.60;87.00
6752;DHT22;3413;47.680;9.166;2023-05-19T04:13:22;14.60;86.90
6752;DHT22;3413;47.680;9.166;2023-05-19T04:18:25;14.50;86.90
6752;DHT22;3413;47.680;9.166;2023-05-19T04:23:29;14.50;86.90
6752;DHT22;3413;47.680;9.166;2023-05-19T04:28:32;14.50;87.00
6752;DHT22;3413;47.680;9.166;2023-05-19T04:33:37;14.50;86.80
6752;DHT22;3413;47.680;9.166;2023-05-19T04:38:40;14.50;87.00
6752;DHT22;3413;47.680;9.166;2023-05-19T04:43:45;14.50;86.90
6752;DHT22;3413;47.680;9.166;2023-05-19T04:48:49;14.50;87.00
6752;DHT22;3413;47.680;9.166;2023-05-19T04:53:51;14.40;87.00
6752;DHT22;3413;47.680;9.166;2023-05-19T04:58:55;14.50;87.10
6752;DHT22;3413;47.680;9.166;2023-05-19T05:03:58;14.50;87.10
6752;DHT22;3413;47.680;9.166;2023-05-19T05:09:02;14.40;87.00
6752;DHT22;3413;47.680;9.166;2023-05-19T05:14:06;14.40;87.10
6752;DHT22;3413;47.680;9.166;2023-05-19T05:19:09;14.40;87.10
6752;DHT22;3413;47.680;9.166;2023-05-19T05:24:12;14.50;87.30
6752;DHT22;3413;47.680;9.166;2023-05-19T05:29:24;14.50;87.30
6752;DHT22;3413;47.680;9.166;2023-05-19T05:34:27;14.40;87.40
6752;DHT22;3413;47.680;9.166;2023-05-19T05:39:30;14.50;87.50
6752;DHT22;3413;47.680;9.166;2023-05-19T05:44:39;14.40;87.40
6752;DHT22;3413;47.680;9.166;2023-05-19T05:49:43;14.40;87.40
6752;DHT22;3413;47.680;9.166;2023-05-19T05:54:50;14.50;87.70
6752;DHT22;3413;47.680;9.166;2023-05-19T05:59:54;14.50;87.70
6752;DHT22;3413;47.680;9.166;2023-05-19T06:04:57;14.60;87.70
6752;DHT22;3413;47.680;9.166;2023-05-19T06:10:00;14.60;87.70
6752;DHT22;3413;47.680;9.166;2023-05-19T06:15:06;14.60;87.80
6752;DHT22;3413;47.680;9.166;2023-05-19T06:20:21;14.70;88.10
6752;DHT22;3413;47.680;9.166;2023-05-19T06:25:25;14.80;88.10
6752;DHT22;3413;47.680;9.166;2023-05-19T06:30:29;14.80;88.00
6752;DHT22;3413;47.680;9.166;2023-05-19T06:35:46;14.80;88.20
6752;DHT22;3413;47.680;9.166;2023-05-19T06:40:50;14.90;88.30
6752;DHT22;3413;47.680;9.166;2023-05-19T06:45:52;15.00;88.30
6752;DHT22;3413;47.680;9.166;2023-05-19T06:50:56;15.10;88.40
6752;DHT22;3413;47.680;9.166;2023-05-19T06:56:01;15.20;88.70
6752;DHT22;3413;47.680;9.166;2023-05-19T07:01:07;15.20;88.90
6752;DHT22;3413;47.680;9.166;2023-05-19T07:06:16;15.20;88.70
6752;DHT22;3413;47.680;9.166;2023-05-19T07:11:21;15.20;89.00
6752;DHT22;3413;47.680;9.166;2023-05-19T07:16:24;15.30;89.10
6752;DHT22;3413;47.680;9.166;2023-05-19T07:21:29;15.40;89.20
6752;DHT22;3413;47.680;9.166;2023-05-19T07:26:32;15.40;89.30
6752;DHT22;3413;47.680;9.166;2023-05-19T07:31:35;15.50;89.30
6752;DHT22;3413;47.680;9.166;2023-05-19T07:36:37;15.60;89.40
6752;DHT22;3413;47.680;9.166;2023-05-19T07:41:40;15.80;89.70
6752;DHT22;3413;47.680;9.166;2023-05-19T07:46:42;15.90;89.60
6752;DHT22;3413;47.680;9.166;2023-05-19T07:51:44;16.00;89.80
6752;DHT22;3413;47.680;9.166;2023-05-19T07:56:47;16.20;90.00
6752;DHT22;3413;47.680;9.166;2023-05-19T08:01:49;16.20;90.00
6752;DHT22;3413;47.680;9.166;2023-05-19T08:06:50;16.20;90.10
6752;DHT22;3413;47.680;9.166;2023-05-19T08:12:02;16.30;90.10
6752;DHT22;3413;47.680;9.166;2023-05-19T08:17:07;16.40;90.30
6752;DHT22;3413;47.680;9.166;2023-05-19T08:22:09;16.50;90.30
6752;DHT22;3413;47.680;9.166;2023-05-19T08:27:11;16.60;90.30
6752;DHT22;3413;47.680;9.166;2023-05-19T08:32:13;16.70;90.40
6752;DHT22;3413;47.680;9.166;2023-05-19T08:37:15;16.80;90.50
6752;DHT22;3413;47.680;9.166;2023-05-19T08:42:17;16.80;90.50
6752;DHT22;3413;47.680;9.166;2023-05-19T08:47:18;17.00;90.60
6752;DHT22;3413;47.680;9.166;2023-05-19T08:57:27;17.00;90.60
6752;DHT22;3413;47.680;9.166;2023-05-19T09:02:30;17.10;90.60
6752;DHT22;3413;47.680;9.166;2023-05-19T09:07:46;17.20;90.70
6752;DHT22;3413;47.680;9.166;2023-05-19T09:12:49;17.40;90.80
6752;DHT22;3413;47.680;9.166;2023-05-19T09:18:06;17.50;90.80
6752;DHT22;3413;47.680;9.166;2023-05-19T09:23:15;17.60;90.90
6752;DHT22;3413;47.680;9.166;2023-05-19T09:28:25;17.70;91.00
6752;DHT22;3413;47.680;9.166;2023-05-19T09:33:28;17.80;91.00
6752;DHT22;3413;47.680;9.166;2023-05-19T09:38:30;17.90;91.00
6752;DHT22;3413;47.680;9.166;2023-05-19T09:43:33;18.00;91.10
6752;DHT22;3413;47.680;9.166;2023-05-19T09:48:36;18.10;91.10
6752;DHT22;3413;47.680;9.166;2023-05-19T09:53:38;18.30;91.20
6752;DHT22;3413;47.680;9.166;2023-05-19T09:58:44;18.50;91.30
6752;DHT22;3413;47.680;9.166;2023-05-19T10:03:46;18.60;91.30
6752;DHT22;3413;47.680;9.166;2023-05-19T10:08:49;18.70;91.30
6752;DHT22;3413;47.680;9.166;2023-05-19T10:13:52;18.60;91.10
6752;DHT22;3413;47.680;9.166;2023-05-19T10:18:54;18.60;91.10
6752;DHT22;3413;47.680;9.166;2023-05-19T10:23:58;18.60;91.00
6752;DHT22;3413;47.680;9.166;2023-05-19T10:29:01;18.50;91.00
6752;DHT22;3413;47.680;9.166;2023-05-19T10:39:34;18.50;91.00
6752;DHT22;3413;47.680;9.166;2023-05-19T10:49:42;18.90;91.10
6752;DHT22;3413;47.680;9.166;2023-05-19T10:54:43;19.00;91.00
6752;DHT22;3413;47.680;9.166;2023-05-19T10:59:48;19.10;91.00
6752;DHT22;3413;47.680;9.166;2023-05-19T11:04:50;19.10;91.10
6752;DHT22;3413;47.680;9.166;2023-05-19T11:09:53;19.20;91.10
6752;DHT22;3413;47.680;9.166;2023-05-19T11:14:57;19.20;91.00
6752;DHT22;3413;47.680;9.166;2023-05-19T11:20:00;19.40;91.30
6752;DHT22;3413;47.680;9.166;2023-05-19T11:25:02;19.60;91.40
6752;DHT22;3413;47.680;9.166;2023-05-19T11:35:10;19.70;91.50
6752;DHT22;3413;47.680;9.166;2023-05-19T11:40:14;19.80;91.50
6752;DHT22;3413;47.680;9.166;2023-05-19T11:45:16;19.90;91.60
6752;DHT22;3413;47.680;9.166;2023-05-19T11:50:18;20.00;91.50
6752;DHT22;3413;47.680;9.166;2023-05-19T11:55:21;20.00;91.40
6752;DHT22;3413;47.680;9.166;2023-05-19T12:00:25;20.10;91.50
6752;DHT22;3413;47.680;9.166;2023-05-19T12:05:28;20.10;91.70
6752;DHT22;3413;47.680;9.166;2023-05-19T12:10:36;20.30;91.70
6752;DHT22;3413;47.680;9.166;2023-05-19T12:15:44;20.50;91.80
6752;DHT22;3413;47.680;9.166;2023-05-19T12:20:47;20.70;91.90
6752;DHT22;3413;47.680;9.166;2023-05-19T12:25:49;20.80;91.80
6752;DHT22;3413;47.680;9.166;2023-05-19T12:30:52;21.00;91.90
6752;DHT22;3413;47.680;9.166;2023-05-19T12:35:54;21.00;91.90
6752;DHT22;3413;47.680;9.166;2023-05-19T12:41:00;21.00;91.80
6752;DHT22;3413;47.680;9.166;2023-05-19T12:46:11;21.10;91.90
6752;DHT22;3413;47.680;9.166;2023-05-19T12:51:18;21.20;91.90
6752;DHT22;3413;47.680;9.166;2023-05-19T12:56:24;21.10;91.80
6752;DHT22;3413;47.680;9.166;2023-05-19T13:01:31;21.00;91.80
6752;DHT22;3413;47.680;9.166;2023-05-19T13:06:36;21.00;91.80
6752;DHT22;3413;47.680;9.166;2023-05-19T13:11:38;21.10;91.80
6752;DHT22;3413;47.680;9.166;2023-05-19T13:16:41;21.10;91.80
6752;DHT22;3413;47.680;9.166;2023-05-19T13:21:43;21.30;91.90
6752;DHT22;3413;47.680;9.166;2023-05-19T13:26:48;21.30;91.80
6752;DHT22;3413;47.680;9.166;2023-05-19T13:31:50;21.30;91.70
6752;DHT22;3413;47.680;9.166;2023-05-19T13:36:52;21.20;91.60
6752;DHT22;3413;47.680;9.166;2023-05-19T13:41:57;20.90;91.40
6752;DHT22;3413;47.680;9.166;2023-05-19T13:46:59;20.70;91.30
6752;DHT22;3413;47.680;9.166;2023-05-19T13:52:01;20.60;91.30
6752;DHT22;3413;47.680;9.166;2023-05-19T13:57:03;20.50;91.20
6752;DHT22;3413;47.680;9.166;2023-05-19T14:02:07;20.40;91.20
6752;DHT22;3413;47.680;9.166;2023-05-19T14:07:09;20.40;91.20
6752;DHT22;3413;47.680;9.166;2023-05-19T14:12:11;20.40;91.10
6752;DHT22;3413;47.680;9.166;2023-05-19T14:17:14;20.40;91.10
6752;DHT22;3413;47.680;9.166;2023-05-19T14:22:16;20.40;91.10
6752;DHT22;3413;47.680;9.166;2023-05-19T14:27:18;20.40;91.10
6752;DHT22;3413;47.680;9.166;2023-05-19T14:32:20;20.30;91.10
6752;DHT22;3413;47.680;9.166;2023-05-19T14:37:22;20.30;91.10
6752;DHT22;3413;47.680;9.166;2023-05-19T14:42:24;20.30;91.00
6752;DHT22;3413;47.680;9.166;2023-05-19T14:47:27;20.10;91.00
6752;DHT22;3413;47.680;9.166;2023-05-19T14:52:29;20.10;91.00
6752;DHT22;3413;47.680;9.166;2023-05-19T14:57:31;20.10;91.00
6752;DHT22;3413;47.680;9.166;2023-05-19T15:02:33;20.20;91.00
6752;DHT22;3413;47.680;9.166;2023-05-19T15:07:35;20.20;90.90
6752;DHT22;3413;47.680;9.166;2023-05-19T15:12:37;20.20;90.90
6752;DHT22;3413;47.680;9.166;2023-05-19T15:17:39;20.10;90.90
6752;DHT22;3413;47.680;9.166;2023-05-19T15:22:41;20.00;90.80
6752;DHT22;3413;47.680;9.166;2023-05-19T15:27:43;20.00;90.80
6752;DHT22;3413;47.680;9.166;2023-05-19T15:32:47;20.00;90.70
6752;DHT22;3413;47.680;9.166;2023-05-19T15:37:49;19.90;90.70
6752;DHT22;3413;47.680;9.166;2023-05-19T15:42:51;19.80;91.00
6752;DHT22;3413;47.680;9.166;2023-05-19T15:47:53;19.80;90.60
6752;DHT22;3413;47.680;9.166;2023-05-19T15:52:56;19.70;90.60
6752;DHT22;3413;47.680;9.166;2023-05-19T15:57:58;19.60;90.60
6752;DHT22;3413;47.680;9.166;2023-05-19T16:03:00;19.50;90.50
6752;DHT22;3413;47.680;9.166;2023-05-19T16:08:03;19.50;90.50
6752;DHT22;3413;47.680;9.166;2023-05-19T16:13:08;19.40;90.40
6752;DHT22;3413;47.680;9.166;2023-05-19T16:18:10;19.30;90.40
6752;DHT22;3413;47.680;9.166;2023-05-19T16:23:12;19.30;90.40
6752;DHT22;3413;47.680;9.166;2023-05-19T16:28:14;19.30;90.40
6752;DHT22;3413;47.680;9.166;2023-05-19T16:33:16;19.30;90.40
6752;DHT22;3413;47.680;9.166;2023-05-19T16:38:18;19.20;90.40
6752;DHT22;3413;47.680;9.166;2023-05-19T16:43:20;19.20;90.40
6752;DHT22;3413;47.680;9.166;2023-05-19T16:48:23;19.20;90.30
6752;DHT22;3413;47.680;9.166;2023-05-19T16:53:25;19.20;90.30
6752;DHT22;3413;47.680;9.166;2023-05-19T16:58:27;19.00;90.20
6752;DHT22;3413;47.680;9.166;2023-05-19T17:03:31;18.90;90.20
6752;DHT22;3413;47.680;9.166;2023-05-19T17:08:33;18.90;90.20
6752;DHT22;3413;47.680;9.166;2023-05-19T17:13:35;18.90;90.20
6752;DHT22;3413;47.680;9.166;2023-05-19T17:18:38;19.00;90.20
6752;DHT22;3413;47.680;9.166;2023-05-19T17:23:40;19.00;90.20
6752;DHT22;3413;47.680;9.166;2023-05-19T17:28:42;19.00;90.20
6752;DHT22;3413;47.680;9.166;2023-05-19T17:33:44;19.00;90.20
6752;DHT22;3413;47.680;9.166;2023-05-19T17:38:46;19.00;90.20
6752;DHT22;3413;47.680;9.166;2023-05-19T17:43:48;19.00;90.20
6752;DHT22;3413;47.680;9.166;2023-05-19T17:48:50;18.90;90.20
6752;DHT22;3413;47.680;9.166;2023-05-19T17:53:52;18.90;90.20
6752;DHT22;3413;47.680;9.166;2023-05-19T17:58:54;18.80;90.20
6752;DHT22;3413;47.680;9.166;2023-05-19T18:03:56;18.80;90.20
6752;DHT22;3413;47.680;9.166;2023-05-19T18:08:59;18.80;90.20
6752;DHT22;3413;47.680;9.166;2023-05-19T18:14:03;18.90;90.20
6752;DHT22;3413;47.680;9.166;2023-05-19T18:19:05;18.90;90.20
6752;DHT22;3413;47.680;9.166;2023-05-19T18:24:07;19.00;90.20
6752;DHT22;3413;47.680;9.166;2023-05-19T18:29:10;19.10;90.20
6752;DHT22;3413;47.680;9.166;2023-05-19T18:34:12;19.10;90.10
6752;DHT22;3413;47.680;9.166;2023-05-19T18:39:14;19.10;90.10
6752;DHT22;3413;47.680;9.166;2023-05-19T18:44:16;19.10;90.20
6752;DHT22;3413;47.680;9.166;2023-05-19T18:49:18;19.00;90.10
6752;DHT22;3413;47.680;9.166;2023-05-19T18:54:20;19.00;90.20
6752;DHT22;3413;47.680;9.166;2023-05-19T18:59:23;18.90;90.20
6752;DHT22;3413;47.680;9.166;2023-05-19T19:04:26;18.90;90.20
6752;DHT22;3413;47.680;9.166;2023-05-19T19:09:28;18.80;90.10
6752;DHT22;3413;47.680;9.166;2023-05-19T19:14:30;18.80;90.10
6752;DHT22;3413;47.680;9.166;2023-05-19T19:19:32;18.80;90.20
6752;DHT22;3413;47.680;9.166;2023-05-19T19:24:34;18.80;90.20
6752;DHT22;3413;47.680;9.166;2023-05-19T19:29:36;18.90;90.20
6752;DHT22;3413;47.680;9.166;2023-05-19T19:34:38;18.90;90.20
6752;DHT22;3413;47.680;9.166;2023-05-19T19:39:40;19.00;90.30
6752;DHT22;3413;47.680;9.166;2023-05-19T19:44:42;19.00;90.20
6752;DHT22;3413;47.680;9.166;2023-05-19T19:49:44;19.00;90.20
6752;DHT22;3413;47.680;9.166;2023-05-19T19:54:46;19.00;90.30
6752;DHT22;3413;47.680;9.166;2023-05-19T19:59:49;19.00;90.30
6752;DHT22;3413;47.680;9.166;2023-05-19T20:04:57;18.90;90.20
6752;DHT22;3413;47.680;9.166;2023-05-19T20:09:59;18.90;90.30
6752;DHT22;3413;47.680;9.166;2023-05-19T20:15:01;18.80;90.20
6752;DHT22;3413;47.680;9.166;2023-05-19T20:20:03;18.70;90.20
6752;DHT22;3413;47.680;9.166;2023-05-19T20:25:10;18.70;90.20
6752;DHT22;3413;47.680;9.166;2023-05-19T20:30:12;18.70;90.20
6752;DHT22;3413;47.680;9.166;2023-05-19T20:35:14;18.60;90.30
6752;DHT22;3413;47.680;9.166;2023-05-19T20:40:16;18.60;90.30
6752;DHT22;3413;47.680;9.166;2023-05-19T20:45:19;18.60;90.30
6752;DHT22;3413;47.680;9.166;2023-05-19T20:50:21;18.60;90.30
6752;DHT22;3413;47.680;9.166;2023-05-19T20:55:23;18.60;90.30
6752;DHT22;3413;47.680;9.166;2023-05-19T21:00:25;18.60;90.30
6752;DHT22;3413;47.680;9.166;2023-05-19T21:05:30;18.60;90.30
6752;DHT22;3413;47.680;9.166;2023-05-19T21:10:33;18.60;90.30
6752;DHT22;3413;47.680;9.166;2023-05-19T21:15:35;18.50;90.20
6752;DHT22;3413;47.680;9.166;2023-05-19T21:20:37;18.40;90.30
6752;DHT22;3413;47.680;9.166;2023-05-19T21:25:39;18.40;90.30
6752;DHT22;3413;47.680;9.166;2023-05-19T21:30:46;18.30;90.30
6752;DHT22;3413;47.680;9.166;2023-05-19T21:35:48;18.30;90.30
6752;DHT22;3413;47.680;9.166;2023-05-19T21:40:51;18.20;90.30
6752;DHT22;3413;47.680;9.166;2023-05-19T21:45:53;18.10;90.30
6752;DHT22;3413;47.680;9.166;2023-05-19T21:50:55;18.20;90.30
6752;DHT22;3413;47.680;9.166;2023-05-19T21:55:58;18.10;90.20
6752;DHT22;3413;47.680;9.166;2023-05-19T22:01:00;18.00;90.20
6752;DHT22;3413;47.680;9.166;2023-05-19T22:06:02;17.80;90.20
6752;DHT22;3413;47.680;9.166;2023-05-19T22:11:07;17.80;90.20
6752;DHT22;3413;47.680;9.166;2023-05-19T22:16:09;17.80;90.20
6752;DHT22;3413;47.680;9.166;2023-05-19T22:21:50;17.70;90.20
6752;DHT22;3413;47.680;9.166;2023-05-19T22:27:49;17.70;90.20
6752;DHT22;3413;47.680;9.166;2023-05-19T22:33:16;17.60;90.20
6752;DHT22;3413;47.680;9.166;2023-05-19T22:38:41;17.50;90.20
6752;DHT22;3413;47.680;9.166;2023-05-19T22:44:52;17.50;90.20
6752;DHT22;3413;47.680;9.166;2023-05-19T22:50:57;17.50;90.20
6752;DHT22;3413;47.680;9.166;2023-05-19T22:56:23;17.60;90.20
6752;DHT22;3413;47.680;9.166;2023-05-19T23:01:42;17.50;90.20
6752;DHT22;3413;47.680;9.166;2023-05-19T23:07:03;17.50;90.30
6752;DHT22;3413;47.680;9.166;2023-05-19T23:12:20;17.60;90.30
6752;DHT22;3413;47.680;9.166;2023-05-19T23:17:49;17.60;90.30
6752;DHT22;3413;47.680;9.166;2023-05-19T23:23:21;17.70;90.30
6752;DHT22;3413;47.680;9.166;2023-05-19T23:28:35;17.70;90.30
6752;DHT22;3413;47.680;9.166;2023-05-19T23:34:10;17.70;90.30
6752;DHT22;3413;47.680;9.166;2023-05-19T23:39:29;17.70;90.30
6752;DHT22;3413;47.680;9.166;2023-05-19T23:44:49;17.60;90.40
6752;DHT22;3413;47.680;9.166;2023-05-19T23:50:20;17.50;90.40
6752;DHT22;3413;47.680;9.166;2023-05-19T23:55:22;17.50;90.30
